sensor_id;sensor_type;location;lat;lon;timestamp;pressure;altitude;pressure_sealevel;temperature;humidity
65897;BME280;52677;50.898;10.854;2023-10-19T00:00:20;96963.53;;;6.39;100.00
65897;BME280;52677;50.898;10.854;2023-10-19T00:02:21;96968.63;;;6.40;100.00
65897;BME280;52677;50.898;10.854;2023-10-19T00:04:23;96971.75;;;6.35;100.00
65897;BME280;52677;50.898;10.854;2023-10-19T00:06:23;96954.50;;;6.35;100.00
65897;BME280;52677;50.898;10.854;2023-10-19T00:08:24;96952.91;;;6.34;100.00
65897;BME280;52677;50.898;10.854;2023-10-19T00:10:24;96957.22;;;6.35;100.00
65897;BME280;52677;50.898;10.854;2023-10-19T00:12:29;96943.50;;;6.31;100.00
65897;BME280;52677;50.898;10.854;2023-10-19T00:14:29;96939.53;;;6.29;100.00
65897;BME280;52677;50.898;10.854;2023-10-19T00:16:29;96936.44;;;6.30;100.00
65897;BME280;52677;50.898;10.854;2023-10-19T00:18:30;96937.22;;;6.31;100.00
65897;BME280;52677;50.898;10.854;2023-10-19T00:20:34;96932.50;;;6.31;100.00
65897;BME280;52677;50.898;10.854;2023-10-19T00:22:34;96930.53;;;6.32;100.00
65897;BME280;52677;50.898;10.854;2023-10-19T00:24:36;96925.06;;;6.32;100.00
65897;BME280;52677;50.898;10.854;2023-10-19T00:26:36;96932.50;;;6.31;100.00
65897;BME280;52677;50.898;10.854;2023-10-19T00:28:37;96921.91;;;6.30;100.00
65897;BME280;52677;50.898;10.854;2023-10-19T00:30:39;96922.69;;;6.30;100.00
65897;BME280;52677;50.898;10.854;2023-10-19T00:32:42;96919.16;;;6.33;100.00
65897;BME280;52677;50.898;10.854;2023-10-19T00:34:42;96920.75;;;6.31;100.00
65897;BME280;52677;50.898;10.854;2023-10-19T00:36:51;96910.94;;;6.30;100.00
65897;BME280;52677;50.898;10.854;2023-10-19T00:38:51;96910.94;;;6.30;100.00
65897;BME280;52677;50.898;10.854;2023-10-19T00:40:54;96907.41;;;6.29;100.00
65897;BME280;52677;50.898;10.854;2023-10-19T00:43:02;96901.50;;;6.31;100.00
65897;BME280;52677;50.898;10.854;2023-10-19T00:45:08;96904.66;;;6.33;100.00
65897;BME280;52677;50.898;10.854;2023-10-19T00:47:13;96896.00;;;6.34;100.00
65897;BME280;52677;50.898;10.854;2023-10-19T00:49:14;96896.41;;;6.33;100.00
65897;BME280;52677;50.898;10.854;2023-10-19T00:51:21;96875.63;;;6.32;100.00
65897;BME280;52677;50.898;10.854;2023-10-19T00:53:28;96887.00;;;6.34;100.00
65897;BME280;52677;50.898;10.854;2023-10-19T00:55:29;96881.50;;;6.34;100.00
65897;BME280;52677;50.898;10.854;2023-10-19T00:57:30;96881.88;;;6.36;100.00
65897;BME280;52677;50.898;10.854;2023-10-19T00:59:34;96877.56;;;6.35;100.00
65897;BME280;52677;50.898;10.854;2023-10-19T01:01:50;96875.59;;;6.35;100.00
65897;BME280;52677;50.898;10.854;2023-10-19T01:03:53;96867.75;;;6.34;100.00
65897;BME280;52677;50.898;10.854;2023-10-19T01:05:56;96866.59;;;6.35;100.00
65897;BME280;52677;50.898;10.854;2023-10-19T01:07:58;96858.34;;;6.35;100.00
65897;BME280;52677;50.898;10.854;2023-10-19T01:10:03;96850.13;;;6.38;100.00
65897;BME280;52677;50.898;10.854;2023-10-19T01:12:08;96840.69;;;6.36;100.00
65897;BME280;52677;50.898;10.854;2023-10-19T01:14:38;96840.69;;;6.36;100.00
65897;BME280;52677;50.898;10.854;2023-10-19T01:16:38;96826.94;;;6.36;100.00
65897;BME280;52677;50.898;10.854;2023-10-19T01:18:38;96824.59;;;6.34;100.00
65897;BME280;52677;50.898;10.854;2023-10-19T01:20:43;96831.25;;;6.37;100.00
65897;BME280;52677;50.898;10.854;2023-10-19T01:23:08;96825.38;;;6.35;100.00
65897;BME280;52677;50.898;10.854;2023-10-19T01:25:08;96824.63;;;6.38;100.00
65897;BME280;52677;50.898;10.854;2023-10-19T01:27:10;96819.13;;;6.38;100.00
65897;BME280;52677;50.898;10.854;2023-10-19T01:29:11;96808.13;;;6.38;100.00
65897;BME280;52677;50.898;10.854;2023-10-19T01:31:20;96809.72;;;6.39;100.00
65897;BME280;52677;50.898;10.854;2023-10-19T01:33:31;96809.31;;;6.40;100.00
65897;BME280;52677;50.898;10.854;2023-10-19T01:35:31;96804.59;;;6.41;100.00
65897;BME280;52677;50.898;10.854;2023-10-19T01:37:51;96799.09;;;6.44;100.00
65897;BME280;52677;50.898;10.854;2023-10-19T01:39:52;96798.72;;;6.46;100.00
65897;BME280;52677;50.898;10.854;2023-10-19T01:41:52;96792.06;;;6.47;100.00
65897;BME280;52677;50.898;10.854;2023-10-19T01:43:53;96788.91;;;6.48;100.00
65897;BME280;52677;50.898;10.854;2023-10-19T01:45:54;96786.16;;;6.48;100.00
65897;BME280;52677;50.898;10.854;2023-10-19T01:47:57;96787.34;;;6.51;100.00
65897;BME280;52677;50.898;10.854;2023-10-19T01:50:00;96778.69;;;6.49;100.00
65897;BME280;52677;50.898;10.854;2023-10-19T01:52:00;96788.50;;;6.50;100.00
65897;BME280;52677;50.898;10.854;2023-10-19T01:54:01;96770.47;;;6.49;100.00
65897;BME280;52677;50.898;10.854;2023-10-19T01:56:01;96770.06;;;6.51;100.00
65897;BME280;52677;50.898;10.854;2023-10-19T01:58:05;96761.81;;;6.51;100.00
65897;BME280;52677;50.898;10.854;2023-10-19T02:00:06;96765.72;;;6.53;100.00
65897;BME280;52677;50.898;10.854;2023-10-19T02:02:11;96763.41;;;6.55;100.00
65897;BME280;52677;50.898;10.854;2023-10-19T02:04:12;96753.59;;;6.54;100.00
65897;BME280;52677;50.898;10.854;2023-10-19T02:06:14;96754.75;;;6.53;100.00
65897;BME280;52677;50.898;10.854;2023-10-19T02:08:21;96750.84;;;6.54;100.00
65897;BME280;52677;50.898;10.854;2023-10-19T02:10:25;96755.53;;;6.54;100.00
65897;BME280;52677;50.898;10.854;2023-10-19T02:12:27;96756.34;;;6.54;100.00
65897;BME280;52677;50.898;10.854;2023-10-19T02:14:27;96762.22;;;6.56;100.00
65897;BME280;52677;50.898;10.854;2023-10-19T02:16:31;96747.69;;;6.56;100.00
65897;BME280;52677;50.898;10.854;2023-10-19T02:18:33;96741.03;;;6.57;100.00
65897;BME280;52677;50.898;10.854;2023-10-19T02:20:34;96734.75;;;6.56;100.00
65897;BME280;52677;50.898;10.854;2023-10-19T02:22:35;96740.63;;;6.58;100.00
65897;BME280;52677;50.898;10.854;2023-10-19T02:24:35;96721.41;;;6.55;100.00
65897;BME280;52677;50.898;10.854;2023-10-19T02:26:37;96714.72;;;6.59;100.00
65897;BME280;52677;50.898;10.854;2023-10-19T02:28:38;96712.75;;;6.60;100.00
65897;BME280;52677;50.898;10.854;2023-10-19T02:30:39;96714.72;;;6.59;100.00
65897;BME280;52677;50.898;10.854;2023-10-19T02:32:42;96702.13;;;6.62;100.00
65897;BME280;52677;50.898;10.854;2023-10-19T02:34:43;96708.03;;;6.64;100.00
65897;BME280;52677;50.898;10.854;2023-10-19T02:36:45;96697.44;;;6.62;100.00
65897;BME280;52677;50.898;10.854;2023-10-19T02:38:46;96699.00;;;6.63;100.00
65897;BME280;52677;50.898;10.854;2023-10-19T02:40:50;96689.59;;;6.64;100.00
65897;BME280;52677;50.898;10.854;2023-10-19T02:42:50;96684.50;;;6.63;100.00
65897;BME280;52677;50.898;10.854;2023-10-19T02:44:52;96697.06;;;6.64;100.00
65897;BME280;52677;50.898;10.854;2023-10-19T02:46:54;96690.38;;;6.65;100.00
65897;BME280;52677;50.898;10.854;2023-10-19T02:49:02;96679.38;;;6.65;100.00
65897;BME280;52677;50.898;10.854;2023-10-19T02:51:13;96675.44;;;6.66;100.00
65897;BME280;52677;50.898;10.854;2023-10-19T02:53:13;96681.34;;;6.71;100.00
65897;BME280;52677;50.898;10.854;2023-10-19T02:55:14;96680.53;;;6.74;100.00
65897;BME280;52677;50.898;10.854;2023-10-19T02:57:16;96681.31;;;6.82;100.00
65897;BME280;52677;50.898;10.854;2023-10-19T02:59:17;96670.31;;;6.82;100.00
65897;BME280;52677;50.898;10.854;2023-10-19T03:01:22;96672.66;;;6.87;100.00
65897;BME280;52677;50.898;10.854;2023-10-19T03:03:22;96667.16;;;6.84;100.00
65897;BME280;52677;50.898;10.854;2023-10-19T03:05:23;96664.41;;;6.84;100.00
65897;BME280;52677;50.898;10.854;2023-10-19T03:07:25;96675.78;;;6.86;100.00
65897;BME280;52677;50.898;10.854;2023-10-19T03:09:26;96675.41;;;6.84;100.00
65897;BME280;52677;50.898;10.854;2023-10-19T03:11:27;96668.34;;;6.83;100.00
65897;BME280;52677;50.898;10.854;2023-10-19T03:13:27;96671.47;;;6.85;100.00
65897;BME280;52677;50.898;10.854;2023-10-19T03:15:28;96668.72;;;6.85;100.00
65897;BME280;52677;50.898;10.854;2023-10-19T03:17:32;96660.47;;;6.85;100.00
65897;BME280;52677;50.898;10.854;2023-10-19T03:19:33;96660.47;;;6.85;100.00
65897;BME280;52677;50.898;10.854;2023-10-19T03:21:35;96649.09;;;6.83;100.00
65897;BME280;52677;50.898;10.854;2023-10-19T03:23:43;96647.09;;;6.87;100.00
65897;BME280;52677;50.898;10.854;2023-10-19T03:25:43;96643.56;;;6.90;100.00
65897;BME280;52677;50.898;10.854;2023-10-19T03:27:57;96639.25;;;6.89;100.00
65897;BME280;52677;50.898;10.854;2023-10-19T03:29:57;96642.00;;;6.92;100.00
65897;BME280;52677;50.898;10.854;2023-10-19T03:32:01;96636.88;;;6.94;100.00
65897;BME280;52677;50.898;10.854;2023-10-19T03:34:01;96632.16;;;6.95;100.00
65897;BME280;52677;50.898;10.854;2023-10-19T03:36:05;96632.97;;;6.95;100.00
65897;BME280;52677;50.898;10.854;2023-10-19T03:38:09;96623.53;;;6.96;100.00
65897;BME280;52677;50.898;10.854;2023-10-19T03:40:18;96631.34;;;7.01;100.00
65897;BME280;52677;50.898;10.854;2023-10-19T03:42:29;96628.97;;;7.07;100.00
65897;BME280;52677;50.898;10.854;2023-10-19T03:44:33;96629.75;;;7.08;100.00
65897;BME280;52677;50.898;10.854;2023-10-19T03:46:48;96629.34;;;7.09;100.00
65897;BME280;52677;50.898;10.854;2023-10-19T03:49:01;96626.19;;;7.14;100.00
65897;BME280;52677;50.898;10.854;2023-10-19T03:51:13;96624.22;;;7.15;100.00
65897;BME280;52677;50.898;10.854;2023-10-19T03:53:14;96622.25;;;7.15;100.00
65897;BME280;52677;50.898;10.854;2023-10-19T03:55:15;96625.41;;;7.14;100.00
65897;BME280;52677;50.898;10.854;2023-10-19T03:57:18;96634.44;;;7.14;100.00
65897;BME280;52677;50.898;10.854;2023-10-19T03:59:25;96628.13;;;7.17;100.00
65897;BME280;52677;50.898;10.854;2023-10-19T04:01:29;96609.69;;;7.14;100.00
65897;BME280;52677;50.898;10.854;2023-10-19T04:03:31;96611.66;;;7.14;100.00
65897;BME280;52677;50.898;10.854;2023-10-19T04:05:31;96621.09;;;7.09;100.00
65897;BME280;52677;50.898;10.854;2023-10-19T04:07:38;96610.47;;;7.11;100.00
65897;BME280;52677;50.898;10.854;2023-10-19T04:09:38;96603.78;;;7.16;100.00
65897;BME280;52677;50.898;10.854;2023-10-19T04:11:57;96610.09;;;7.13;100.00
65897;BME280;52677;50.898;10.854;2023-10-19T04:13:58;96613.22;;;7.11;100.00
65897;BME280;52677;50.898;10.854;2023-10-19T04:16:03;96609.31;;;7.12;100.00
65897;BME280;52677;50.898;10.854;2023-10-19T04:18:04;96601.84;;;7.09;100.00
65897;BME280;52677;50.898;10.854;2023-10-19T04:20:12;96604.97;;;7.15;100.00
65897;BME280;52677;50.898;10.854;2023-10-19T04:22:19;96607.34;;;7.13;100.00
65897;BME280;52677;50.898;10.854;2023-10-19T04:24:23;96608.91;;;7.10;100.00
65897;BME280;52677;50.898;10.854;2023-10-19T04:26:23;96592.41;;;7.10;100.00
65897;BME280;52677;50.898;10.854;2023-10-19T04:28:24;96590.84;;;7.09;100.00
65897;BME280;52677;50.898;10.854;2023-10-19T04:30:31;96590.81;;;7.16;100.00
65897;BME280;52677;50.898;10.854;2023-10-19T04:32:33;96595.91;;;7.18;100.00
65897;BME280;52677;50.898;10.854;2023-10-19T04:34:35;96602.19;;;7.18;100.00
65897;BME280;52677;50.898;10.854;2023-10-19T04:36:37;96595.13;;;7.21;100.00
65897;BME280;52677;50.898;10.854;2023-10-19T04:38:39;96600.22;;;7.19;100.00
65897;BME280;52677;50.898;10.854;2023-10-19T04:40:40;96594.75;;;7.15;100.00
65897;BME280;52677;50.898;10.854;2023-10-19T04:42:40;96591.19;;;7.22;100.00
65897;BME280;52677;50.898;10.854;2023-10-19T04:44:41;96588.44;;;7.18;100.00
65897;BME280;52677;50.898;10.854;2023-10-19T04:46:42;96588.44;;;7.18;100.00
65897;BME280;52677;50.898;10.854;2023-10-19T04:48:42;96589.63;;;7.17;100.00
65897;BME280;52677;50.898;10.854;2023-10-19T04:50:43;96579.00;;;7.19;100.00
65897;BME280;52677;50.898;10.854;2023-10-19T04:52:43;96587.25;;;7.19;100.00
65897;BME280;52677;50.898;10.854;2023-10-19T04:54:43;96580.97;;;7.19;100.00
65897;BME280;52677;50.898;10.854;2023-10-19T04:56:43;96564.88;;;7.17;100.00
65897;BME280;52677;50.898;10.854;2023-10-19T04:58:44;96564.09;;;7.17;100.00
65897;BME280;52677;50.898;10.854;2023-10-19T05:00:44;96558.19;;;7.18;100.00
65897;BME280;52677;50.898;10.854;2023-10-19T05:02:44;96560.94;;;7.18;100.00
65897;BME280;52677;50.898;10.854;2023-10-19T05:04:45;96555.47;;;7.15;100.00
65897;BME280;52677;50.898;10.854;2023-10-19T05:06:45;96560.94;;;7.18;100.00
65897;BME280;52677;50.898;10.854;2023-10-19T05:08:45;96566.84;;;7.20;100.00
65897;BME280;52677;50.898;10.854;2023-10-19T05:10:46;96572.72;;;7.22;100.00
65897;BME280;52677;50.898;10.854;2023-10-19T05:12:47;96567.59;;;7.24;100.00
65897;BME280;52677;50.898;10.854;2023-10-19T05:14:47;96568.78;;;7.23;100.00
65897;BME280;52677;50.898;10.854;2023-10-19T05:16:48;96562.50;;;7.23;100.00
65897;BME280;52677;50.898;10.854;2023-10-19T05:18:49;96560.53;;;7.23;100.00
65897;BME280;52677;50.898;10.854;2023-10-19T05:20:49;96560.50;;;7.27;100.00
65897;BME280;52677;50.898;10.854;2023-10-19T05:22:55;96559.72;;;7.30;100.00
65897;BME280;52677;50.898;10.854;2023-10-19T05:24:55;96559.25;;;7.35;100.00
65897;BME280;52677;50.898;10.854;2023-10-19T05:26:56;96562.78;;;7.39;100.00
65897;BME280;52677;50.898;10.854;2023-10-19T05:28:56;96570.25;;;7.39;100.00
65897;BME280;52677;50.898;10.854;2023-10-19T05:30:57;96565.13;;;7.41;100.00
65897;BME280;52677;50.898;10.854;2023-10-19T05:33:00;96575.72;;;7.42;100.00
65897;BME280;52677;50.898;10.854;2023-10-19T05:35:01;96583.56;;;7.44;100.00
65897;BME280;52677;50.898;10.854;2023-10-19T05:37:04;96575.31;;;7.47;100.00
65897;BME280;52677;50.898;10.854;2023-10-19T05:39:05;96570.94;;;7.53;100.00
65897;BME280;52677;50.898;10.854;2023-10-19T05:41:09;96573.72;;;7.53;100.00
65897;BME280;52677;50.898;10.854;2023-10-19T05:43:11;96572.84;;;7.60;100.00
65897;BME280;52677;50.898;10.854;2023-10-19T05:45:12;96585.41;;;7.61;100.00
65897;BME280;52677;50.898;10.854;2023-10-19T05:47:16;96585.88;;;7.56;100.00
65897;BME280;52677;50.898;10.854;2023-10-19T05:49:16;96585.50;;;7.54;100.00
65897;BME280;52677;50.898;10.854;2023-10-19T05:51:17;96581.16;;;7.53;100.00
65897;BME280;52677;50.898;10.854;2023-10-19T05:53:17;96586.28;;;7.54;100.00
65897;BME280;52677;50.898;10.854;2023-10-19T05:55:22;96592.53;;;7.58;100.00
65897;BME280;52677;50.898;10.854;2023-10-19T05:57:22;96590.91;;;7.61;100.00
65897;BME280;52677;50.898;10.854;2023-10-19T05:59:24;96596.41;;;7.65;100.00
65897;BME280;52677;50.898;10.854;2023-10-19T06:01:26;96598.41;;;7.60;100.00
65897;BME280;52677;50.898;10.854;2023-10-19T06:03:27;96600.38;;;7.60;100.00
65897;BME280;52677;50.898;10.854;2023-10-19T06:05:28;96601.94;;;7.61;100.00
65897;BME280;52677;50.898;10.854;2023-10-19T06:07:30;96602.69;;;7.65;100.00
65897;BME280;52677;50.898;10.854;2023-10-19T06:09:30;96605.03;;;7.67;100.00
65897;BME280;52677;50.898;10.854;2023-10-19T06:11:30;96598.34;;;7.68;100.00
65897;BME280;52677;50.898;10.854;2023-10-19T06:13:34;96594.03;;;7.70;100.00
65897;BME280;52677;50.898;10.854;2023-10-19T06:15:35;96595.91;;;7.77;100.00
65897;BME280;52677;50.898;10.854;2023-10-19T06:17:35;96605.78;;;7.78;100.00
65897;BME280;52677;50.898;10.854;2023-10-19T06:19:36;96607.69;;;7.81;100.00
65897;BME280;52677;50.898;10.854;2023-10-19T06:21:38;96597.84;;;7.83;100.00
65897;BME280;52677;50.898;10.854;2023-10-19T06:23:38;96599.81;;;7.86;100.00
65897;BME280;52677;50.898;10.854;2023-10-19T06:25:38;96607.63;;;7.92;100.00
65897;BME280;52677;50.898;10.854;2023-10-19T06:27:39;96598.94;;;7.97;100.00
65897;BME280;52677;50.898;10.854;2023-10-19T06:29:39;96598.88;;;8.00;100.00
65897;BME280;52677;50.898;10.854;2023-10-19T06:31:39;96603.91;;;8.09;100.00
65897;BME280;52677;50.898;10.854;2023-10-19T06:33:40;96603.50;;;8.14;100.00
65897;BME280;52677;50.898;10.854;2023-10-19T06:35:41;96610.50;;;8.22;100.00
65897;BME280;52677;50.898;10.854;2023-10-19T06:37:42;96621.88;;;8.24;100.00
65897;BME280;52677;50.898;10.854;2023-10-19T06:39:42;96610.03;;;8.27;100.00
65897;BME280;52677;50.898;10.854;2023-10-19T06:41:42;96604.94;;;8.26;100.00
65897;BME280;52677;50.898;10.854;2023-10-19T06:43:43;96606.56;;;8.23;100.00
65897;BME280;52677;50.898;10.854;2023-10-19T06:45:46;96617.56;;;8.23;100.00
65897;BME280;52677;50.898;10.854;2023-10-19T06:47:48;96611.63;;;8.28;100.00
65897;BME280;52677;50.898;10.854;2023-10-19T06:49:49;96615.19;;;8.29;100.00
65897;BME280;52677;50.898;10.854;2023-10-19T06:51:50;96612.06;;;8.23;100.00
65897;BME280;52677;50.898;10.854;2023-10-19T06:53:50;96607.34;;;8.24;100.00
65897;BME280;52677;50.898;10.854;2023-10-19T06:55:51;96614.75;;;8.30;100.00
65897;BME280;52677;50.898;10.854;2023-10-19T06:57:52;96612.38;;;8.36;100.00
65897;BME280;52677;50.898;10.854;2023-10-19T06:59:53;96615.09;;;8.39;100.00
65897;BME280;52677;50.898;10.854;2023-10-19T07:01:54;96610.78;;;8.38;100.00
65897;BME280;52677;50.898;10.854;2023-10-19T07:03:54;96611.97;;;8.37;100.00
65897;BME280;52677;50.898;10.854;2023-10-19T07:05:56;96618.69;;;8.36;100.00
65897;BME280;52677;50.898;10.854;2023-10-19T07:07:58;96619.81;;;8.39;100.00
65897;BME280;52677;50.898;10.854;2023-10-19T07:09:59;96615.03;;;8.47;100.00
65897;BME280;52677;50.898;10.854;2023-10-19T07:12:00;96612.63;;;8.49;100.00
65897;BME280;52677;50.898;10.854;2023-10-19T07:14:01;96619.69;;;8.53;100.00
65897;BME280;52677;50.898;10.854;2023-10-19T07:16:01;96612.13;;;8.61;100.00
65897;BME280;52677;50.898;10.854;2023-10-19T07:18:03;96604.59;;;8.65;100.00
65897;BME280;52677;50.898;10.854;2023-10-19T07:20:07;96613.28;;;8.63;100.00
65897;BME280;52677;50.898;10.854;2023-10-19T07:22:09;96607.72;;;8.67;100.00
65897;BME280;52677;50.898;10.854;2023-10-19T07:24:10;96601.78;;;8.68;100.00
65897;BME280;52677;50.898;10.854;2023-10-19T07:26:11;96608.47;;;8.71;100.00
65897;BME280;52677;50.898;10.854;2023-10-19T07:28:15;96609.19;;;8.75;100.00
65897;BME280;52677;50.898;10.854;2023-10-19T07:30:17;96602.47;;;8.80;100.00
65897;BME280;52677;50.898;10.854;2023-10-19T07:32:21;96614.63;;;8.82;100.00
65897;BME280;52677;50.898;10.854;2023-10-19T07:34:21;96603.94;;;8.88;100.00
65897;BME280;52677;50.898;10.854;2023-10-19T07:36:28;96600.75;;;8.89;100.00
65897;BME280;52677;50.898;10.854;2023-10-19T07:38:28;96602.31;;;8.90;100.00
65897;BME280;52677;50.898;10.854;2023-10-19T07:40:31;96600.34;;;8.91;100.00
65897;BME280;52677;50.898;10.854;2023-10-19T07:42:32;96601.50;;;8.93;100.00
65897;BME280;52677;50.898;10.854;2023-10-19T07:44:34;96604.94;;;9.01;100.00
65897;BME280;52677;50.898;10.854;2023-10-19T07:46:35;96593.09;;;9.04;100.00
65897;BME280;52677;50.898;10.854;2023-10-19T07:48:35;96589.47;;;9.11;100.00
65897;BME280;52677;50.898;10.854;2023-10-19T07:50:38;96600.03;;;9.16;100.00
65897;BME280;52677;50.898;10.854;2023-10-19T07:52:40;96594.44;;;9.23;100.00
65897;BME280;52677;50.898;10.854;2023-10-19T07:54:40;96592.03;;;9.25;100.00
65897;BME280;52677;50.898;10.854;2023-10-19T07:56:41;96587.97;;;9.33;100.00
65897;BME280;52677;50.898;10.854;2023-10-19T07:58:41;96591.84;;;9.39;100.00
65897;BME280;52677;50.898;10.854;2023-10-19T08:00:42;96595.72;;;9.45;100.00
65897;BME280;52677;50.898;10.854;2023-10-19T08:02:42;96596.84;;;9.48;100.00
65897;BME280;52677;50.898;10.854;2023-10-19T08:04:45;96582.97;;;9.51;100.00
65897;BME280;52677;50.898;10.854;2023-10-19T08:06:45;96590.81;;;9.56;100.00
65897;BME280;52677;50.898;10.854;2023-10-19T08:08:47;96587.59;;;9.62;100.00
65897;BME280;52677;50.898;10.854;2023-10-19T08:10:47;96585.97;;;9.64;100.00
65897;BME280;52677;50.898;10.854;2023-10-19T08:12:48;96581.88;;;9.72;100.00
65897;BME280;52677;50.898;10.854;2023-10-19T08:14:49;96574.75;;;9.75;100.00
65897;BME280;52677;50.898;10.854;2023-10-19T08:16:50;96587.19;;;9.87;100.00
65897;BME280;52677;50.898;10.854;2023-10-19T08:18:51;96589.84;;;9.94;100.00
65897;BME280;52677;50.898;10.854;2023-10-19T08:20:52;96586.59;;;9.99;100.00
65897;BME280;52677;50.898;10.854;2023-10-19T08:22:54;96582.09;;;10.08;100.00
65897;BME280;52677;50.898;10.854;2023-10-19T08:24:57;96582.03;;;10.12;100.00
65897;BME280;52677;50.898;10.854;2023-10-19T08:26:57;96579.19;;;10.16;100.00
65897;BME280;52677;50.898;10.854;2023-10-19T08:28:57;96585.91;;;10.18;100.00
65897;BME280;52677;50.898;10.854;2023-10-19T08:31:00;96590.22;;;10.19;100.00
65897;BME280;52677;50.898;10.854;2023-10-19T08:33:01;96587.03;;;10.21;100.00
65897;BME280;52677;50.898;10.854;2023-10-19T08:35:02;96587.75;;;10.25;100.00
65897;BME280;52677;50.898;10.854;2023-10-19T08:37:03;96586.19;;;10.24;100.00
65897;BME280;52677;50.898;10.854;2023-10-19T08:39:08;96589.41;;;10.22;100.00
65897;BME280;52677;50.898;10.854;2023-10-19T08:41:09;96585.78;;;10.25;100.00
65897;BME280;52677;50.898;10.854;2023-10-19T08:43:09;96595.88;;;10.35;100.00
65897;BME280;52677;50.898;10.854;2023-10-19T08:45:14;96590.28;;;10.39;100.00
65897;BME280;52677;50.898;10.854;2023-10-19T08:47:14;96598.03;;;10.48;100.00
65897;BME280;52677;50.898;10.854;2023-10-19T08:49:15;96608.88;;;10.58;100.00
65897;BME280;52677;50.898;10.854;2023-10-19T08:51:17;96596.13;;;10.64;100.00
65897;BME280;52677;50.898;10.854;2023-10-19T08:53:20;96593.72;;;10.66;100.00
65897;BME280;52677;50.898;10.854;2023-10-19T08:55:21;96596.69;;;10.76;100.00
65897;BME280;52677;50.898;10.854;2023-10-19T08:57:22;96605.16;;;10.88;100.00
65897;BME280;52677;50.898;10.854;2023-10-19T08:59:22;96596.06;;;10.88;100.00
65897;BME280;52677;50.898;10.854;2023-10-19T09:01:23;96595.22;;;10.91;100.00
65897;BME280;52677;50.898;10.854;2023-10-19T09:03:24;96587.22;;;10.96;100.00
65897;BME280;52677;50.898;10.854;2023-10-19T09:05:25;96589.88;;;11.00;100.00
65897;BME280;52677;50.898;10.854;2023-10-19T09:07:26;96574.78;;;11.05;100.00
65897;BME280;52677;50.898;10.854;2023-10-19T09:09:30;96577.06;;;11.10;100.00
65897;BME280;52677;50.898;10.854;2023-10-19T09:11:33;96581.81;;;11.09;100.00
65897;BME280;52677;50.898;10.854;2023-10-19T09:13:48;96578.53;;;11.14;100.00
65897;BME280;52677;50.898;10.854;2023-10-19T09:15:50;96580.09;;;11.15;100.00
65897;BME280;52677;50.898;10.854;2023-10-19T09:17:53;96572.94;;;11.18;100.00
65897;BME280;52677;50.898;10.854;2023-10-19T09:19:54;96569.31;;;11.21;100.00
65897;BME280;52677;50.898;10.854;2023-10-19T09:21:56;96571.22;;;11.24;100.00
65897;BME280;52677;50.898;10.854;2023-10-19T09:23:58;96565.25;;;11.25;100.00
65897;BME280;52677;50.898;10.854;2023-10-19T09:26:00;96557.75;;;11.26;100.00
65897;BME280;52677;50.898;10.854;2023-10-19T09:28:05;96557.56;;;11.33;100.00
65897;BME280;52677;50.898;10.854;2023-10-19T09:30:08;96549.97;;;11.37;100.00
65897;BME280;52677;50.898;10.854;2023-10-19T09:32:08;96558.19;;;11.41;100.00
65897;BME280;52677;50.898;10.854;2023-10-19T09:34:09;96549.28;;;11.49;100.00
65897;BME280;52677;50.898;10.854;2023-10-19T09:36:12;96546.00;;;11.54;100.00
65897;BME280;52677;50.898;10.854;2023-10-19T09:38:16;96560.03;;;11.64;100.00
65897;BME280;52677;50.898;10.854;2023-10-19T09:40:16;96552.00;;;11.69;100.00
65897;BME280;52677;50.898;10.854;2023-10-19T09:42:17;96554.59;;;11.76;100.00
65897;BME280;52677;50.898;10.854;2023-10-19T09:44:20;96555.72;;;11.79;100.00
65897;BME280;52677;50.898;10.854;2023-10-19T09:46:26;96559.56;;;11.85;100.00
65897;BME280;52677;50.898;10.854;2023-10-19T09:48:29;96558.25;;;11.90;100.00
65897;BME280;52677;50.898;10.854;2023-10-19T09:50:35;96556.53;;;11.96;100.00
65897;BME280;52677;50.898;10.854;2023-10-19T09:52:36;96560.00;;;12.00;100.00
65897;BME280;52677;50.898;10.854;2023-10-19T09:54:48;96554.69;;;12.05;100.00
65897;BME280;52677;50.898;10.854;2023-10-19T09:56:57;96554.09;;;12.14;100.00
65897;BME280;52677;50.898;10.854;2023-10-19T09:59:05;96553.91;;;12.21;100.00
65897;BME280;52677;50.898;10.854;2023-10-19T10:01:06;96553.72;;;12.28;100.00
65897;BME280;52677;50.898;10.854;2023-10-19T10:03:44;96549.44;;;12.40;100.00
65897;BME280;52677;50.898;10.854;2023-10-19T10:05:45;96539.06;;;12.44;100.00
65897;BME280;52677;50.898;10.854;2023-10-19T10:07:47;96547.78;;;12.59;100.00
65897;BME280;52677;50.898;10.854;2023-10-19T10:09:48;96535.59;;;12.69;100.00
65897;BME280;52677;50.898;10.854;2023-10-19T10:11:50;96532.63;;;12.76;100.00
65897;BME280;52677;50.898;10.854;2023-10-19T10:13:54;96525.41;;;12.79;100.00
65897;BME280;52677;50.898;10.854;2023-10-19T10:15:56;96540.66;;;12.87;100.00
65897;BME280;52677;50.898;10.854;2023-10-19T10:17:57;96534.00;;;12.97;100.00
65897;BME280;52677;50.898;10.854;2023-10-19T10:22:14;96540.69;;;13.12;100.00
65897;BME280;52677;50.898;10.854;2023-10-19T10:24:16;96546.06;;;13.19;100.00
65897;BME280;52677;50.898;10.854;2023-10-19T10:26:19;96532.97;;;13.20;100.00
65897;BME280;52677;50.898;10.854;2023-10-19T10:28:20;96525.84;;;13.19;100.00
65897;BME280;52677;50.898;10.854;2023-10-19T10:30:23;96530.19;;;13.20;100.00
65897;BME280;52677;50.898;10.854;2023-10-19T10:34:43;96523.25;;;13.12;100.00
65897;BME280;52677;50.898;10.854;2023-10-19T10:37:01;96523.50;;;13.17;100.00
65897;BME280;52677;50.898;10.854;2023-10-19T10:39:03;96519.41;;;13.22;100.00
65897;BME280;52677;50.898;10.854;2023-10-19T10:41:07;96538.19;;;13.31;100.00
65897;BME280;52677;50.898;10.854;2023-10-19T10:43:11;96520.53;;;13.37;100.00